CheckWX is a tool to help pilots better visualize weather data.  It is not intended as a substitute for an official pre-flight weather briefing.

02:51:43 UTC

KOFP METAR
Hanover County Municipal Airport
Richmond/Ashland, Virginia, USA
Current

58 mins ago

KOFP 230154Z AUTO 17009KT 10SM CLR 27/17 A3008 RMK AO2 SLP184 T02670167 $
Observed
Sep-23 @ 01:54 UTC
Wind
  • 170° at 9 KTS
Visibility
10 SM
Flight Rules
VFR
Cloud Levels
  • Clear skies
Temperature
27°C / 81°F
Dewpoint
17°C / 63°F
Heat Index
28°C / 82°F
Humidity
54%
Altimeter
30.08" Hg
Pressure
1018.62 hPa
Previous

2 hours ago

KOFP 230054Z AUTO 18009KT 10SM CLR 27/17 A3008 RMK AO2 SLP182 T02720167 $
Observed
Sep-23 @ 00:54 UTC
Wind
  • 180° at 9 KTS
Visibility
10 SM
Flight Rules
VFR
Cloud Levels
  • Clear skies
Temperature
27°C / 81°F
Dewpoint
17°C / 63°F
Heat Index
28°C / 82°F
Humidity
54%
Altimeter
30.08" Hg
Pressure
1018.62 hPa
Previous

3 hours ago

KOFP 222354Z AUTO 16005KT 10SM CLR 28/17 A3007 RMK AO2 SLP181 T02780172 10339 20278 53000 $
Observed
Sep-22 @ 23:54 UTC
Wind
  • 160° at 5 KTS
Visibility
10 SM
Flight Rules
VFR
Cloud Levels
  • Clear skies
Temperature
28°C / 82°F
Dewpoint
17°C / 63°F
Heat Index
28°C / 83°F
Humidity
51%
Altimeter
30.07" Hg
Pressure
1018.32 hPa